Time;durP1;ratioP1;P1;durP2;ratioP2;P2;SDS_P1;SDS_P2;PMS_P1;PMS_P2;Temp;Humidity;BMP_temperature;BMP_pressure;BME280_temperature;BME280_humidity;BME280_pressure;Samples;Min_cycle;Max_cycle;Signal;HPM_P1;HPM_P2
2023/10/10 00:00:57;;;;;;;;;;;13.00;79.20;;;;;;5193034;22;20507;-84
2023/10/10 00:03:18;;;;;;;;;;;13.00;79.20;;;;;;5169612;22;19910;-84
2023/10/10 00:05:39;;;;;;;;;;;12.90;79.20;;;;;;5195618;22;19914;-84
2023/10/10 00:08:00;;;;;;;;;;;12.90;79.20;;;;;;5193675;22;19918;-84
2023/10/10 00:10:20;;;;;;;;;;;12.90;79.10;;;;;;5196368;22;19909;-84
2023/10/10 00:12:39;;;;;;;;;;;12.90;79.70;;;;;;5194973;22;20247;-84
2023/10/10 00:14:59;;;;;;;;;;;13.00;79.10;;;;;;5196293;22;19918;-84
2023/10/10 00:17:20;;;;;;;;;;;12.90;79.80;;;;;;5194938;22;19910;-84
2023/10/10 00:19:52;;;;;;;;;;;12.90;79.10;;;;;;5168925;22;19914;-82
2023/10/10 00:22:12;;;;;;;;;;;12.90;79.90;;;;;;5192622;22;19935;-83
2023/10/10 00:24:31;;;;;;;;;;;13.00;79.40;;;;;;5192804;22;19958;-84
2023/10/10 00:26:50;;;;;;;;;;;12.90;79.30;;;;;;5194704;22;19934;-84
2023/10/10 00:29:11;;;;;;;;;;;12.90;79.40;;;;;;5191101;22;19917;-85
2023/10/10 00:31:31;;;;;;;;;;;12.90;79.30;;;;;;5192875;22;20088;-83
2023/10/10 00:33:51;;;;;;;;;;;12.80;79.90;;;;;;5192920;22;19914;-84
2023/10/10 00:36:21;;;;;;;;;;;12.90;79.30;;;;;;5193543;22;20029;-83
2023/10/10 00:38:42;;;;;;;;;;;12.90;79.40;;;;;;5194198;22;19915;-84
2023/10/10 00:41:06;;;;;;;;;;;12.90;79.50;;;;;;5193100;22;20572;-82
2023/10/10 00:43:25;;;;;;;;;;;12.90;80.20;;;;;;5190133;22;20002;-84
2023/10/10 00:45:52;;;;;;;;;;;12.80;79.30;;;;;;5191965;22;19926;-85
2023/10/10 00:48:16;;;;;;;;;;;12.80;79.80;;;;;;5170478;22;19922;-84
2023/10/10 00:50:37;;;;;;;;;;;12.80;80.00;;;;;;5193249;22;19914;-84
2023/10/10 00:52:56;;;;;;;;;;;12.90;79.30;;;;;;5168960;22;20359;-83
2023/10/10 00:55:21;;;;;;;;;;;12.80;79.20;;;;;;5193294;22;19909;-84
2023/10/10 00:57:42;;;;;;;;;;;12.80;79.20;;;;;;5192156;22;19995;-84
2023/10/10 01:00:07;;;;;;;;;;;12.80;79.90;;;;;;5191356;22;20449;-85
2023/10/10 01:02:26;;;;;;;;;;;12.80;79.20;;;;;;5194001;22;20006;-84
2023/10/10 01:04:49;;;;;;;;;;;12.80;79.30;;;;;;5193225;22;19910;-84
2023/10/10 01:07:08;;;;;;;;;;;12.80;79.30;;;;;;5191823;22;19953;-85
2023/10/10 01:09:33;;;;;;;;;;;12.80;79.30;;;;;;5168330;22;20398;-83
2023/10/10 01:11:53;;;;;;;;;;;12.70;79.20;;;;;;5190796;22;19914;-83
2023/10/10 01:14:18;;;;;;;;;;;12.80;80.00;;;;;;5189039;22;19918;-82
2023/10/10 01:16:39;;;;;;;;;;;12.80;79.20;;;;;;5189428;22;19978;-84
2023/10/10 01:18:59;;;;;;;;;;;12.80;79.20;;;;;;5189673;22;19937;-84
2023/10/10 01:21:23;;;;;;;;;;;12.90;79.50;;;;;;5190363;22;19970;-84
2023/10/10 01:23:45;;;;;;;;;;;12.80;79.30;;;;;;5190769;22;19953;-83
2023/10/10 01:26:09;;;;;;;;;;;12.70;80.00;;;;;;5190390;22;19934;-84
2023/10/10 01:28:33;;;;;;;;;;;12.80;79.40;;;;;;5189268;22;20089;-83
2023/10/10 01:33:14;;;;;;;;;;;12.70;80.10;;;;;;5189796;22;19950;-84
2023/10/10 01:35:34;;;;;;;;;;;12.70;79.50;;;;;;5187553;22;20302;-84
2023/10/10 01:37:54;;;;;;;;;;;12.70;79.60;;;;;;5188639;22;19942;-84
2023/10/10 01:40:15;;;;;;;;;;;12.80;79.70;;;;;;5189191;22;20404;-84
2023/10/10 01:42:44;;;;;;;;;;;12.80;79.70;;;;;;5190342;22;19929;-83
2023/10/10 01:45:10;;;;;;;;;;;12.70;79.50;;;;;;5186208;22;19963;-83
2023/10/10 01:47:34;;;;;;;;;;;12.70;80.30;;;;;;5189280;22;19915;-83
2023/10/10 01:49:58;;;;;;;;;;;12.80;79.70;;;;;;5189428;22;20007;-85
2023/10/10 01:52:17;;;;;;;;;;;12.90;79.80;;;;;;5189212;22;19910;-83
2023/10/10 01:54:41;;;;;;;;;;;12.70;79.80;;;;;;5190653;22;19946;-84
2023/10/10 01:57:00;;;;;;;;;;;12.70;79.90;;;;;;5190187;22;19931;-83
2023/10/10 01:59:24;;;;;;;;;;;12.80;80.00;;;;;;5166586;22;20110;-84
2023/10/10 02:01:43;;;;;;;;;;;12.80;80.00;;;;;;5166758;22;19954;-84
2023/10/10 02:04:07;;;;;;;;;;;12.70;80.00;;;;;;5191064;22;19949;-84
2023/10/10 02:06:28;;;;;;;;;;;12.70;80.80;;;;;;5163332;22;19915;-84
2023/10/10 02:08:51;;;;;;;;;;;12.70;80.10;;;;;;5188980;22;19919;-84
2023/10/10 02:11:13;;;;;;;;;;;12.80;80.10;;;;;;5189455;22;19915;-83
2023/10/10 02:13:33;;;;;;;;;;;12.80;80.20;;;;;;5190373;22;19948;-84
2023/10/10 02:15:53;;;;;;;;;;;12.80;80.20;;;;;;5196693;22;19905;-83
2023/10/10 02:18:13;;;;;;;;;;;12.80;80.20;;;;;;5208695;22;19934;-84
2023/10/10 02:20:33;;;;;;;;;;;12.80;80.20;;;;;;5188215;22;19919;-85
2023/10/10 02:22:54;;;;;;;;;;;12.90;80.30;;;;;;5192477;22;19982;-83
2023/10/10 02:27:55;;;;;;;;;;;12.80;80.20;;;;;;5191391;22;19937;-83
2023/10/10 02:30:22;;;;;;;;;;;12.80;80.10;;;;;;5163235;22;19965;-84
2023/10/10 02:32:41;;;;;;;;;;;12.80;81.00;;;;;;5187495;22;19910;-84
2023/10/10 02:35:16;;;;;;;;;;;12.80;80.20;;;;;;5189783;22;19911;-84
2023/10/10 02:37:44;;;;;;;;;;;12.80;80.10;;;;;;5192465;22;19919;-84
2023/10/10 02:40:13;;;;;;;;;;;12.90;80.10;;;;;;5192241;22;19952;-84
2023/10/10 02:42:35;;;;;;;;;;;12.80;79.90;;;;;;5191203;22;19914;-82
2023/10/10 02:44:58;;;;;;;;;;;12.80;79.90;;;;;;5212467;22;20042;-83
2023/10/10 02:47:30;;;;;;;;;;;12.80;80.60;;;;;;5215406;22;19903;-83
2023/10/10 02:49:51;;;;;;;;;;;12.80;80.60;;;;;;5186430;22;20378;-84
2023/10/10 02:52:14;;;;;;;;;;;12.70;79.80;;;;;;5194488;22;19918;-84
2023/10/10 02:54:34;;;;;;;;;;;12.60;79.60;;;;;;5194090;22;19914;-84
2023/10/10 02:56:57;;;;;;;;;;;12.70;79.70;;;;;;5194449;22;20243;-84
2023/10/10 02:59:21;;;;;;;;;;;12.50;80.30;;;;;;5195304;22;19914;-84
2023/10/10 03:01:56;;;;;;;;;;;12.60;79.50;;;;;;5190338;22;20334;-84
2023/10/10 03:04:17;;;;;;;;;;;12.50;79.50;;;;;;5192621;22;19968;-84
2023/10/10 03:06:37;;;;;;;;;;;12.40;79.30;;;;;;5193442;22;19950;-84
2023/10/10 03:09:38;;;;;;;;;;;12.50;79.30;;;;;;5194288;22;20238;-84
2023/10/10 03:11:53;;;;;;;;;;;12.50;79.30;;;;;;5193686;22;19941;-84
2023/10/10 03:14:25;;;;;;;;;;;12.30;79.10;;;;;;5193884;22;19933;-83
2023/10/10 03:16:59;;;;;;;;;;;12.30;79.20;;;;;;5194112;22;19922;-84
2023/10/10 03:19:28;;;;;;;;;;;12.30;79.10;;;;;;5194540;22;19912;-84
2023/10/10 03:24:14;;;;;;;;;;;12.20;79.10;;;;;;5196633;22;19910;-84
2023/10/10 03:29:21;;;;;;;;;;;12.20;79.30;;;;;;5148940;22;19914;-83
2023/10/10 03:31:47;;;;;;;;;;;12.10;79.10;;;;;;5196033;22;19918;-84
2023/10/10 03:34:18;;;;;;;;;;;12.10;79.30;;;;;;5194803;22;19917;-84
2023/10/10 03:36:45;;;;;;;;;;;12.20;79.30;;;;;;5195774;22;19909;-84
2023/10/10 05:25:23;;;;;;;;;;;12.10;79.90;;;;;;5193035;22;19929;-83
2023/10/10 05:27:42;;;;;;;;;;;12.10;79.90;;;;;;5192415;22;19915;-85
2023/10/10 05:30:04;;;;;;;;;;;12.20;79.90;;;;;;5193933;22;20109;-83
2023/10/10 05:32:27;;;;;;;;;;;12.10;80.60;;;;;;5190712;22;19979;-84
2023/10/10 05:34:47;;;;;;;;;;;12.10;79.90;;;;;;5190121;22;19961;-83
2023/10/10 05:37:07;;;;;;;;;;;12.10;80.00;;;;;;5189898;22;20033;-83
2023/10/10 05:39:32;;;;;;;;;;;12.30;80.10;;;;;;5191051;22;19910;-83
2023/10/10 05:41:54;;;;;;;;;;;12.20;80.10;;;;;;5169223;22;19918;-84
2023/10/10 05:44:15;;;;;;;;;;;12.10;80.00;;;;;;5194213;22;20385;-85
2023/10/10 05:46:35;;;;;;;;;;;12.10;80.10;;;;;;5188886;22;20044;-84
2023/10/10 05:48:56;;;;;;;;;;;12.00;80.00;;;;;;5188881;22;19922;-82
2023/10/10 05:51:15;;;;;;;;;;;12.10;80.90;;;;;;5182803;22;19954;-83
2023/10/10 05:53:16;;;;;;;;;;;12.10;80.90;;;;;;5185850;22;19907;-83
2023/10/10 05:55:17;;;;;;;;;;;12.10;80.10;;;;;;5187549;22;19907;-83
2023/10/10 05:57:18;;;;;;;;;;;12.10;80.10;;;;;;5162339;23;19946;-83
2023/10/10 05:59:18;;;;;;;;;;;12.10;80.10;;;;;;5160137;23;19903;-84
2023/10/10 06:01:19;;;;;;;;;;;12.20;80.20;;;;;;5163560;23;19911;-82
2023/10/10 06:03:21;;;;;;;;;;;12.20;80.20;;;;;;5187082;22;20324;-83
2023/10/10 06:05:21;;;;;;;;;;;12.20;80.30;;;;;;5158605;23;19904;-83
2023/10/10 06:07:22;;;;;;;;;;;12.10;80.10;;;;;;5186983;22;20605;-84
2023/10/10 06:09:26;;;;;;;;;;;12.20;80.20;;;;;;5188770;22;20491;-84
2023/10/10 06:11:31;;;;;;;;;;;12.00;80.10;;;;;;5138363;23;20476;-82
2023/10/10 06:13:34;;;;;;;;;;;12.10;80.20;;;;;;5138183;23;19911;-84
2023/10/10 06:15:34;;;;;;;;;;;12.20;80.30;;;;;;5189071;22;19950;-83
2023/10/10 06:17:35;;;;;;;;;;;12.10;81.00;;;;;;5189096;22;20395;-84
2023/10/10 06:19:36;;;;;;;;;;;12.10;80.20;;;;;;5189115;22;20251;-84
2023/10/10 06:21:40;;;;;;;;;;;12.20;80.30;;;;;;5187536;22;20332;-84
2023/10/10 06:23:42;;;;;;;;;;;12.10;80.20;;;;;;5163622;22;19908;-83
2023/10/10 06:25:43;;;;;;;;;;;12.10;80.30;;;;;;5190729;22;19911;-83
2023/10/10 06:27:54;;;;;;;;;;;12.10;80.30;;;;;;5189895;22;19911;-83
2023/10/10 06:30:00;;;;;;;;;;;12.10;80.30;;;;;;5188409;22;19907;-84
2023/10/10 06:32:06;;;;;;;;;;;12.10;80.30;;;;;;5188421;22;19903;-83
2023/10/10 06:34:19;;;;;;;;;;;12.10;80.30;;;;;;5192184;22;19913;-84
2023/10/10 06:38:24;;;;;;;;;;;12.30;80.50;;;;;;5199068;22;19907;-84
2023/10/10 06:40:25;;;;;;;;;;;12.30;80.50;;;;;;5198106;22;19903;-85
2023/10/10 06:42:29;;;;;;;;;;;12.20;80.40;;;;;;5170668;22;19998;-84
2023/10/10 06:44:34;;;;;;;;;;;12.20;80.50;;;;;;5196151;22;19907;-83
2023/10/10 06:46:37;;;;;;;;;;;12.30;80.50;;;;;;5195502;22;19903;-85
2023/10/10 06:48:40;;;;;;;;;;;12.20;80.40;;;;;;5197836;22;20087;-85
2023/10/10 06:50:42;;;;;;;;;;;12.30;80.60;;;;;;5209804;22;19903;-84
2023/10/10 06:52:43;;;;;;;;;;;12.30;80.50;;;;;;5210700;22;19903;-83
2023/10/10 06:54:45;;;;;;;;;;;12.30;80.50;;;;;;5191122;22;20385;-84
2023/10/10 06:57:04;;;;;;;;;;;12.30;80.60;;;;;;5192300;22;19907;-84
2023/10/10 06:59:05;;;;;;;;;;;12.30;80.60;;;;;;5166994;23;19927;-84
2023/10/10 07:01:06;;;;;;;;;;;12.30;80.60;;;;;;5166164;23;19908;-84
2023/10/10 07:03:07;;;;;;;;;;;12.40;80.70;;;;;;5191781;22;19910;-83
2023/10/10 07:05:15;;;;;;;;;;;12.40;80.70;;;;;;5192235;22;20342;-84
2023/10/10 07:07:18;;;;;;;;;;;12.40;80.70;;;;;;5192637;22;19907;-84
2023/10/10 07:09:28;;;;;;;;;;;12.40;80.70;;;;;;5191556;22;19911;-83
2023/10/10 07:11:29;;;;;;;;;;;12.40;80.70;;;;;;5189089;22;19987;-83
2023/10/10 07:13:30;;;;;;;;;;;12.50;80.80;;;;;;5188985;22;19907;-83
2023/10/10 07:15:34;;;;;;;;;;;12.60;80.90;;;;;;5188560;22;19922;-84
2023/10/10 07:17:38;;;;;;;;;;;12.50;80.80;;;;;;5162209;23;19904;-84
2023/10/10 07:21:04;;;;;;;;;;;12.50;80.80;;;;;;5189669;22;19988;-83
2023/10/10 07:22:15;;;;;;;;;;;12.70;81.00;;;;;;5160388;22;20152;-84
2023/10/10 07:24:17;;;;;;;;;;;12.60;81.10;;;;;;5188210;22;19914;-84
2023/10/10 07:26:20;;;;;;;;;;;12.60;81.00;;;;;;5189830;22;20025;-84
2023/10/10 07:28:22;;;;;;;;;;;12.70;80.80;;;;;;5188269;22;19907;-84
2023/10/10 07:30:33;;;;;;;;;;;12.60;80.70;;;;;;5161132;23;19907;-84
2023/10/10 07:32:38;;;;;;;;;;;12.70;80.60;;;;;;5189779;22;19907;-84
2023/10/10 07:34:42;;;;;;;;;;;12.80;80.70;;;;;;5163259;23;19912;-84
2023/10/10 07:36:50;;;;;;;;;;;12.80;80.60;;;;;;5190006;22;19911;-83
2023/10/10 07:38:54;;;;;;;;;;;12.70;80.40;;;;;;5190453;22;19903;-83
2023/10/10 07:40:55;;;;;;;;;;;12.70;80.40;;;;;;5208958;22;19903;-84
2023/10/10 07:43:03;;;;;;;;;;;12.80;80.40;;;;;;5187537;22;19971;-83
2023/10/10 07:45:13;;;;;;;;;;;12.80;80.40;;;;;;5164109;23;19896;-83
2023/10/10 07:49:17;;;;;;;;;;;12.80;80.20;;;;;;5195891;22;19915;-84
2023/10/10 07:51:27;;;;;;;;;;;12.80;80.40;;;;;;5193686;22;19907;-83
2023/10/10 07:53:31;;;;;;;;;;;12.90;80.50;;;;;;5193875;22;19907;-84
2023/10/10 07:55:35;;;;;;;;;;;12.80;80.40;;;;;;5168495;23;19907;-84
2023/10/10 08:00:17;;;;;;;;;;;12.80;80.30;;;;;;5192836;22;19904;-84
2023/10/10 08:02:37;;;;;;;;;;;12.80;80.30;;;;;;5193382;22;19904;-84
2023/10/10 08:05:01;;;;;;;;;;;12.80;80.30;;;;;;5193508;22;19911;-83
2023/10/10 08:07:24;;;;;;;;;;;12.90;80.40;;;;;;5193118;22;19911;-84
2023/10/10 08:09:48;;;;;;;;;;;12.90;80.40;;;;;;5194803;22;19911;-85
2023/10/10 08:12:09;;;;;;;;;;;12.90;80.30;;;;;;5193693;22;19911;-84
2023/10/10 08:14:30;;;;;;;;;;;12.90;80.30;;;;;;5189112;22;19908;-84
2023/10/10 08:16:58;;;;;;;;;;;13.00;80.30;;;;;;5188039;22;19943;-84
2023/10/10 08:19:32;;;;;;;;;;;12.90;80.20;;;;;;5189811;22;19953;-85
2023/10/10 08:21:53;;;;;;;;;;;12.90;80.20;;;;;;5186266;22;19907;-84
2023/10/10 08:24:14;;;;;;;;;;;13.00;80.30;;;;;;5189317;22;19907;-85
2023/10/10 08:26:41;;;;;;;;;;;12.80;80.10;;;;;;5166929;22;19903;-83
2023/10/10 08:28:42;;;;;;;;;;;12.80;80.10;;;;;;5190442;22;19994;-84
2023/10/10 08:30:43;;;;;;;;;;;13.00;80.20;;;;;;5161468;23;20339;-84
2023/10/10 08:32:44;;;;;;;;;;;12.80;80.10;;;;;;5187796;22;19957;-85
2023/10/10 08:34:44;;;;;;;;;;;13.00;80.20;;;;;;5189378;22;20274;-84
2023/10/10 08:36:45;;;;;;;;;;;12.90;80.20;;;;;;5187210;22;19903;-84
2023/10/10 08:38:46;;;;;;;;;;;12.90;80.10;;;;;;5186652;22;20005;-84
2023/10/10 08:40:56;;;;;;;;;;;13.00;80.20;;;;;;5188130;22;20375;-84
2023/10/10 08:42:57;;;;;;;;;;;13.00;80.20;;;;;;5161981;22;19911;-84
2023/10/10 08:44:58;;;;;;;;;;;13.00;80.30;;;;;;5162135;23;20455;-84
2023/10/10 08:47:00;;;;;;;;;;;13.00;80.30;;;;;;5187122;22;19922;-85
2023/10/10 08:49:04;;;;;;;;;;;12.90;80.30;;;;;;5189178;22;20320;-85
2023/10/10 08:51:05;;;;;;;;;;;13.00;80.40;;;;;;5189328;22;19903;-84
2023/10/10 08:53:10;;;;;;;;;;;13.00;80.40;;;;;;5162627;22;20549;-83
2023/10/10 08:55:13;;;;;;;;;;;13.00;80.60;;;;;;5160492;23;19965;-83
2023/10/10 08:57:21;;;;;;;;;;;13.20;80.70;;;;;;5160384;23;20383;-83
2023/10/10 08:59:21;;;;;;;;;;;13.20;80.80;;;;;;5187999;22;20018;-84
2023/10/10 09:01:22;;;;;;;;;;;13.20;80.80;;;;;;5188394;22;19912;-85
2023/10/10 09:03:23;;;;;;;;;;;13.30;81.00;;;;;;5188378;22;20369;-84
2023/10/10 09:05:28;;;;;;;;;;;13.30;81.90;;;;;;5187806;22;19994;-84
2023/10/10 09:07:30;;;;;;;;;;;13.30;81.10;;;;;;5188464;22;19960;-80
2023/10/10 09:09:35;;;;;;;;;;;13.40;81.10;;;;;;5136640;23;19908;-82
2023/10/10 09:11:37;;;;;;;;;;;13.40;81.00;;;;;;5137380;23;20489;-82
2023/10/10 09:13:54;;;;;;;;;;;13.40;81.00;;;;;;5186504;22;19915;-81
2023/10/10 09:15:55;;;;;;;;;;;13.50;81.00;;;;;;5161201;23;19934;-82
2023/10/10 09:18:10;;;;;;;;;;;13.60;81.00;;;;;;5204150;22;19916;-84
2023/10/10 09:20:23;;;;;;;;;;;13.50;81.00;;;;;;5209239;22;19934;-85
2023/10/10 09:22:43;;;;;;;;;;;13.70;81.10;;;;;;5165998;22;19903;-85
2023/10/10 09:24:44;;;;;;;;;;;13.60;81.00;;;;;;5163102;23;19923;-84
2023/10/10 09:26:50;;;;;;;;;;;13.80;81.20;;;;;;5165256;23;19908;-85
2023/10/10 09:29:28;;;;;;;;;;;13.80;81.10;;;;;;5166583;22;19915;-83
2023/10/10 09:31:59;;;;;;;;;;;13.90;81.20;;;;;;5188929;22;19933;-82
2023/10/10 09:34:28;;;;;;;;;;;13.90;81.30;;;;;;5191157;22;20288;-83
2023/10/10 09:36:29;;;;;;;;;;;13.90;81.30;;;;;;5191158;22;19917;-83
2023/10/10 09:38:57;;;;;;;;;;;14.00;81.30;;;;;;5188002;22;19911;-83
2023/10/10 09:41:26;;;;;;;;;;;14.00;81.30;;;;;;5186523;22;19911;-82
2023/10/10 09:44:01;;;;;;;;;;;14.10;81.30;;;;;;5186913;22;19910;-80
2023/10/10 09:46:26;;;;;;;;;;;14.20;81.30;;;;;;5188263;22;19908;-83
2023/10/10 09:48:59;;;;;;;;;;;14.30;81.40;;;;;;5188502;22;19907;-83
2023/10/10 09:51:30;;;;;;;;;;;14.30;81.30;;;;;;5187102;22;19908;-84
2023/10/10 09:53:52;;;;;;;;;;;14.40;81.30;;;;;;5188468;22;19903;-82
2023/10/10 09:56:21;;;;;;;;;;;14.40;81.40;;;;;;5185671;22;20331;-83
2023/10/10 09:58:46;;;;;;;;;;;14.50;81.40;;;;;;5185955;22;19931;-82
2023/10/10 10:01:14;;;;;;;;;;;14.50;81.30;;;;;;5184984;22;19907;-82
2023/10/10 10:03:49;;;;;;;;;;;14.70;81.30;;;;;;5186628;22;20527;-82
2023/10/10 10:08:47;;;;;;;;;;;14.70;81.00;;;;;;5188659;22;19919;-82
2023/10/10 10:11:13;;;;;;;;;;;14.70;80.90;;;;;;5187820;22;19976;-82
2023/10/10 10:13:53;;;;;;;;;;;14.70;80.90;;;;;;5164445;22;19908;-82
2023/10/10 10:16:19;;;;;;;;;;;14.80;80.80;;;;;;5161812;22;19949;-82
2023/10/10 10:18:29;;;;;;;;;;;14.90;81.00;;;;;;5186479;22;19907;-82
2023/10/10 10:20:43;;;;;;;;;;;14.90;81.00;;;;;;5187139;22;19907;-83
2023/10/10 10:22:43;;;;;;;;;;;14.90;81.00;;;;;;5187057;22;19903;-83
2023/10/10 10:24:44;;;;;;;;;;;14.90;80.90;;;;;;5186701;22;19911;-82
2023/10/10 10:27:06;;;;;;;;;;;15.00;81.00;;;;;;5187429;22;19927;-82
2023/10/10 10:29:16;;;;;;;;;;;15.00;80.90;;;;;;5134301;23;19912;-82
2023/10/10 10:31:16;;;;;;;;;;;15.10;81.00;;;;;;5159579;23;19912;-82
2023/10/10 10:33:22;;;;;;;;;;;15.20;81.10;;;;;;5159142;22;20403;-83
2023/10/10 10:35:36;;;;;;;;;;;15.10;81.00;;;;;;5186951;22;19993;-84
2023/10/10 10:37:39;;;;;;;;;;;15.20;81.10;;;;;;5159086;23;19978;-81
2023/10/10 10:39:46;;;;;;;;;;;15.20;81.10;;;;;;5185669;22;19913;-82
2023/10/10 10:41:56;;;;;;;;;;;15.20;80.90;;;;;;5186602;22;19903;-82
2023/10/10 10:44:08;;;;;;;;;;;15.30;80.80;;;;;;5187254;22;19941;-83
2023/10/10 10:46:14;;;;;;;;;;;15.30;81.00;;;;;;5186193;22;19907;-83
2023/10/10 10:48:29;;;;;;;;;;;15.30;81.60;;;;;;5187053;22;19907;-85
2023/10/10 10:50:40;;;;;;;;;;;15.30;80.90;;;;;;5160381;23;19981;-85
2023/10/10 10:52:44;;;;;;;;;;;15.40;80.80;;;;;;5160236;22;19978;-82
2023/10/10 10:54:50;;;;;;;;;;;15.50;80.80;;;;;;5157744;23;19907;-82
2023/10/10 10:56:51;;;;;;;;;;;15.40;80.80;;;;;;5159780;23;19908;-83
2023/10/10 11:01:07;;;;;;;;;;;15.50;80.90;;;;;;5160493;23;19903;-82
2023/10/10 11:03:11;;;;;;;;;;;15.60;81.00;;;;;;5185758;22;20418;-83
2023/10/10 11:05:12;;;;;;;;;;;15.70;81.10;;;;;;5186153;22;19914;-83
2023/10/10 11:07:28;;;;;;;;;;;15.60;81.00;;;;;;5187241;22;19911;-82
2023/10/10 11:09:30;;;;;;;;;;;15.60;81.10;;;;;;5161426;23;20009;-83
2023/10/10 11:13:34;;;;;;;;;;;15.70;81.00;;;;;;5186485;22;19904;-81
2023/10/10 11:15:38;;;;;;;;;;;15.80;81.00;;;;;;5187463;22;19922;-81
2023/10/10 11:17:39;;;;;;;;;;;15.80;81.00;;;;;;5162180;23;19942;-84
2023/10/10 11:19:40;;;;;;;;;;;15.90;81.10;;;;;;5156564;23;19907;-84
2023/10/10 11:21:47;;;;;;;;;;;15.90;81.20;;;;;;5154257;23;20582;-83
2023/10/10 11:23:48;;;;;;;;;;;15.90;81.30;;;;;;5179525;22;19992;-84
2023/10/10 11:26:00;;;;;;;;;;;16.10;81.50;;;;;;5181686;22;20270;-84
2023/10/10 11:28:04;;;;;;;;;;;16.10;81.50;;;;;;5182629;22;20373;-83
2023/10/10 11:30:25;;;;;;;;;;;16.10;81.50;;;;;;5160738;22;19907;-83
2023/10/10 11:32:48;;;;;;;;;;;16.20;81.60;;;;;;5183172;22;19934;-84
2023/10/10 11:37:42;;;;;;;;;;;16.30;81.40;;;;;;5182795;22;19914;-84
2023/10/10 11:40:19;;;;;;;;;;;16.50;81.40;;;;;;5183085;22;19931;-84
2023/10/10 11:42:47;;;;;;;;;;;16.50;81.20;;;;;;5182376;22;19907;-84
2023/10/10 11:45:10;;;;;;;;;;;16.50;81.20;;;;;;5161553;22;19908;-84
2023/10/10 11:47:31;;;;;;;;;;;16.60;81.20;;;;;;5183890;22;19945;-85
2023/10/10 11:50:00;;;;;;;;;;;16.60;81.90;;;;;;5159193;22;19912;-84
2023/10/10 11:52:20;;;;;;;;;;;16.70;81.10;;;;;;5181460;22;19907;-85
2023/10/10 11:54:25;;;;;;;;;;;16.70;81.00;;;;;;5182652;22;19907;-85
2023/10/10 11:56:26;;;;;;;;;;;16.80;81.00;;;;;;5182644;22;19934;-85
2023/10/10 11:58:35;;;;;;;;;;;16.80;81.20;;;;;;5179631;22;19920;-83
2023/10/10 12:00:42;;;;;;;;;;;16.90;81.10;;;;;;5158714;22;19931;-84
2023/10/10 12:02:43;;;;;;;;;;;16.90;81.10;;;;;;5155367;22;19994;-82
2023/10/10 12:04:47;;;;;;;;;;;17.00;81.10;;;;;;5183412;22;20399;-85
2023/10/10 12:06:47;;;;;;;;;;;17.00;81.10;;;;;;5154275;23;19960;-84
2023/10/10 12:08:50;;;;;;;;;;;17.00;80.90;;;;;;5184594;22;19973;-83
2023/10/10 12:11:12;;;;;;;;;;;17.00;80.70;;;;;;5156980;23;20517;-85
2023/10/10 12:13:25;;;;;;;;;;;17.00;80.60;;;;;;5128457;23;20406;-83
2023/10/10 12:15:26;;;;;;;;;;;17.10;80.60;;;;;;5158271;23;19999;-84
2023/10/10 12:17:28;;;;;;;;;;;17.10;80.70;;;;;;5191295;22;19903;-85
2023/10/10 12:19:36;;;;;;;;;;;17.20;80.70;;;;;;5194481;22;19911;-86
2023/10/10 12:21:36;;;;;;;;;;;17.20;80.70;;;;;;5141060;23;19896;-84
2023/10/10 12:23:39;;;;;;;;;;;17.20;80.60;;;;;;5186502;22;20514;-85
2023/10/10 12:25:42;;;;;;;;;;;17.30;80.70;;;;;;5185593;22;19918;-84
2023/10/10 12:27:46;;;;;;;;;;;17.30;80.50;;;;;;5187812;22;20024;-84
2023/10/10 12:29:47;;;;;;;;;;;17.30;80.50;;;;;;5178550;22;19919;-83
2023/10/10 12:31:55;;;;;;;;;;;17.40;80.40;;;;;;5159027;22;19914;-87
2023/10/10 12:33:57;;;;;;;;;;;17.30;80.20;;;;;;5160507;23;20332;-88
2023/10/10 12:35:57;;;;;;;;;;;17.40;80.20;;;;;;5202307;22;19906;-86
2023/10/10 12:38:01;;;;;;;;;;;17.40;80.80;;;;;;5213559;22;19895;-85
2023/10/10 12:40:08;;;;;;;;;;;17.50;80.00;;;;;;5214182;22;19917;-87
2023/10/10 12:42:09;;;;;;;;;;;17.40;79.80;;;;;;5201486;22;19994;-88
2023/10/10 12:44:10;;;;;;;;;;;17.40;79.90;;;;;;5159199;23;19907;-88
2023/10/10 12:46:16;;;;;;;;;;;17.60;79.80;;;;;;5183697;22;19907;-85
2023/10/10 12:48:21;;;;;;;;;;;17.40;79.60;;;;;;5186164;22;19918;-87
2023/10/10 12:50:26;;;;;;;;;;;17.50;80.20;;;;;;5132261;23;19923;-87
2023/10/10 12:52:35;;;;;;;;;;;17.60;79.40;;;;;;5154422;22;20540;-87
2023/10/10 12:54:36;;;;;;;;;;;17.50;79.40;;;;;;5153129;23;19908;-87
2023/10/10 12:56:48;;;;;;;;;;;17.60;79.40;;;;;;5132767;23;19907;-87
2023/10/10 12:58:52;;;;;;;;;;;17.50;79.30;;;;;;5187307;22;19929;-87
2023/10/10 13:00:53;;;;;;;;;;;17.50;79.10;;;;;;5159734;23;20433;-86
2023/10/10 13:03:02;;;;;;;;;;;17.50;79.10;;;;;;5159215;22;19910;-86
2023/10/10 13:05:03;;;;;;;;;;;17.50;79.00;;;;;;5130181;23;19912;-87
2023/10/10 13:07:04;;;;;;;;;;;17.50;79.00;;;;;;5134228;23;20316;-87
2023/10/10 13:09:08;;;;;;;;;;;17.50;79.10;;;;;;5159759;23;19994;-88
2023/10/10 13:11:17;;;;;;;;;;;17.50;79.00;;;;;;5160471;23;20372;-87
2023/10/10 13:13:26;;;;;;;;;;;17.50;79.00;;;;;;5157330;22;19986;-88
2023/10/10 13:15:47;;;;;;;;;;;17.50;78.90;;;;;;5160920;22;19916;-87
2023/10/10 13:18:19;;;;;;;;;;;17.50;78.80;;;;;;5185289;22;19931;-86
2023/10/10 13:20:39;;;;;;;;;;;17.50;78.40;;;;;;5184992;22;19964;-88
2023/10/10 13:23:00;;;;;;;;;;;17.50;77.50;;;;;;5184155;22;20025;-88
2023/10/10 13:25:21;;;;;;;;;;;17.50;77.80;;;;;;5163601;22;19908;-88
2023/10/10 13:27:45;;;;;;;;;;;17.50;77.30;;;;;;5186329;22;20284;-86
2023/10/10 13:30:08;;;;;;;;;;;17.50;77.40;;;;;;5183398;22;19970;-88
2023/10/10 13:32:29;;;;;;;;;;;17.50;77.30;;;;;;5162081;22;19978;-87
2023/10/10 13:34:50;;;;;;;;;;;17.50;77.40;;;;;;5185300;22;19904;-89
2023/10/10 13:37:11;;;;;;;;;;;17.40;76.80;;;;;;5183168;22;19915;-87
2023/10/10 13:39:43;;;;;;;;;;;17.40;77.10;;;;;;5185088;22;19904;-88
2023/10/10 13:42:06;;;;;;;;;;;17.40;77.30;;;;;;5162172;22;19946;-86
2023/10/10 13:44:27;;;;;;;;;;;17.40;77.40;;;;;;5183811;22;19918;-88
2023/10/10 13:46:54;;;;;;;;;;;17.40;77.60;;;;;;5183616;22;19903;-89
2023/10/10 13:49:15;;;;;;;;;;;17.40;77.60;;;;;;5182071;22;19966;-88
2023/10/10 13:51:41;;;;;;;;;;;17.40;77.90;;;;;;5176835;22;19961;-88
2023/10/10 13:54:04;;;;;;;;;;;17.40;77.90;;;;;;5178783;22;19907;-87
2023/10/10 13:56:30;;;;;;;;;;;17.40;77.90;;;;;;5179373;22;20579;-87
2023/10/10 13:58:52;;;;;;;;;;;17.40;77.60;;;;;;5181124;22;19999;-88
2023/10/10 14:06:04;;;;;;;;;;;17.50;77.90;;;;;;5181865;22;19926;-86
2023/10/10 14:08:25;;;;;;;;;;;17.50;77.90;;;;;;5156448;22;20022;-86
2023/10/10 14:10:26;;;;;;;;;;;17.60;78.10;;;;;;5182167;22;19915;-87
2023/10/10 14:12:37;;;;;;;;;;;17.60;78.10;;;;;;5126236;23;19982;-86
2023/10/10 14:14:57;;;;;;;;;;;17.60;78.00;;;;;;5151731;23;20498;-87
2023/10/10 14:17:06;;;;;;;;;;;17.60;78.00;;;;;;5131172;23;19907;-85
2023/10/10 14:19:07;;;;;;;;;;;17.60;77.70;;;;;;5128550;23;20383;-87
2023/10/10 14:21:09;;;;;;;;;;;17.60;77.80;;;;;;5154275;23;19903;-85
2023/10/10 14:23:11;;;;;;;;;;;17.70;77.90;;;;;;5132402;23;19991;-87
2023/10/10 14:25:14;;;;;;;;;;;17.70;77.90;;;;;;5155015;23;19904;-86
2023/10/10 14:27:17;;;;;;;;;;;17.70;77.80;;;;;;5153682;23;19935;-87
2023/10/10 14:29:18;;;;;;;;;;;17.70;77.70;;;;;;5181531;22;19911;-87
2023/10/10 14:31:23;;;;;;;;;;;17.70;77.70;;;;;;5157002;23;19964;-85
2023/10/10 14:33:25;;;;;;;;;;;17.70;77.70;;;;;;5183918;22;20395;-87
2023/10/10 14:35:26;;;;;;;;;;;17.70;77.70;;;;;;5181145;22;19911;-87
2023/10/10 14:37:27;;;;;;;;;;;17.70;77.50;;;;;;5157022;23;19908;-87
2023/10/10 14:39:31;;;;;;;;;;;17.70;77.50;;;;;;5186434;22;19932;-87
2023/10/10 14:41:32;;;;;;;;;;;17.70;77.50;;;;;;5200470;22;19902;-87
2023/10/10 14:43:33;;;;;;;;;;;17.70;77.60;;;;;;5212193;22;19899;-86
2023/10/10 14:45:34;;;;;;;;;;;17.70;77.60;;;;;;5192539;22;19919;-85
2023/10/10 14:47:39;;;;;;;;;;;17.70;77.60;;;;;;5157666;23;19915;-87
2023/10/10 14:49:41;;;;;;;;;;;17.70;77.60;;;;;;5132715;23;19912;-86
2023/10/10 14:51:41;;;;;;;;;;;17.70;77.30;;;;;;5157329;23;20338;-86
2023/10/10 14:53:42;;;;;;;;;;;17.60;77.40;;;;;;5152893;22;19970;-87
2023/10/10 14:55:44;;;;;;;;;;;17.60;77.30;;;;;;5132262;23;19904;-85
2023/10/10 14:57:45;;;;;;;;;;;17.70;77.50;;;;;;5158568;23;20478;-87
2023/10/10 14:59:55;;;;;;;;;;;17.60;77.40;;;;;;5159510;22;19907;-86
2023/10/10 15:01:59;;;;;;;;;;;17.70;77.30;;;;;;5156814;22;19970;-88
2023/10/10 15:04:21;;;;;;;;;;;17.60;77.40;;;;;;5161329;22;19938;-86
2023/10/10 15:06:43;;;;;;;;;;;17.60;77.40;;;;;;5183658;22;19922;-86
2023/10/10 15:09:03;;;;;;;;;;;17.60;77.60;;;;;;5182711;22;19949;-87
2023/10/10 15:11:28;;;;;;;;;;;17.60;77.60;;;;;;5182449;22;19911;-88
2023/10/10 15:13:49;;;;;;;;;;;17.60;77.70;;;;;;5182028;22;19930;-87